Spring Valley, Texas
Current Conditions -  °F | °C
As of 9:55 PM on Sunday 21 Dec 2014 (Local Time) from KMCJ Reporting Station
NA  
Wind Chill: 55°   Ceiling: NA
Heat Index: 55°   Visibility: NA
Dew Point: 54°   Wind: 7mph
Humidity: 94%   Direction: 100°E
Pressure: 29.88"   Gusts: NA
Location:  29.7698°N, 95.5164°W
Report Text: KMCJ 220355Z AUTO 10006KT 13/12 A2988 RMK AO1
Loading
Personal Weather Stations






























Interactive Weather Map New forecast layout! Learn more

10-Day Weather Forecast

Advertisements
Track Severe Weather on mobile